createdAt,value
2019-03-21T00:00:00.362Z,99791.52
2019-03-21T00:02:32.174Z,99784.66
2019-03-21T00:05:17.971Z,99781.20
2019-03-21T00:08:09.127Z,99782.48
2019-03-21T00:11:15.386Z,99775.16
2019-03-21T00:13:46.959Z,99770.45
2019-03-21T00:16:18.610Z,99773.45
2019-03-21T00:19:08.435Z,99772.59
2019-03-21T00:21:39.913Z,99766.16
2019-03-21T00:24:11.403Z,99769.16
2019-03-21T00:27:01.568Z,99770.41
2019-03-21T00:29:51.697Z,99771.28
2019-03-21T00:32:22.919Z,99782.02
2019-03-21T00:35:13.026Z,99775.17
2019-03-21T00:38:02.906Z,99776.00
2019-03-21T00:40:36.500Z,99772.13
2019-03-21T00:43:10.334Z,99769.57
2019-03-21T00:46:00.181Z,99767.41
2019-03-21T00:48:31.922Z,99765.25
2019-03-21T00:51:21.747Z,99776.39
2019-03-21T00:54:11.603Z,99765.64
2019-03-21T00:56:43.172Z,99762.22
2019-03-21T00:59:15.686Z,99766.49
2019-03-21T01:01:46.915Z,99761.79
2019-03-21T01:04:18.395Z,99761.36
2019-03-21T01:06:49.854Z,99759.63
2019-03-21T01:09:21.258Z,99763.92
2019-03-21T01:11:52.760Z,99757.50
2019-03-21T01:14:29.718Z,99758.77
2019-03-21T01:17:15.746Z,99761.36
2019-03-21T01:20:06.645Z,99765.63
2019-03-21T01:22:57.361Z,99766.47
2019-03-21T01:25:32.489Z,99767.33
2019-03-21T01:28:26.550Z,99760.91
2019-03-21T01:30:57.785Z,99760.47
2019-03-21T01:33:29.261Z,99765.58
2019-03-21T01:36:19.912Z,99760.02
2019-03-21T01:39:10.033Z,99763.41
2019-03-21T01:42:00.160Z,99756.55
2019-03-21T01:44:40.602Z,99729.44
2019-03-21T01:47:23.091Z,99756.53
2019-03-21T01:49:54.411Z,99685.12
2019-03-21T01:52:44.913Z,99749.66
2019-03-21T01:55:26.551Z,99752.65
2019-03-21T01:57:58.525Z,99755.22
2019-03-21T02:00:48.807Z,99748.36
2019-03-21T02:03:20.033Z,99746.21
2019-03-21T02:05:51.269Z,99746.21
2019-03-21T02:08:41.178Z,99743.16
2019-03-21T02:11:31.022Z,99740.61
2019-03-21T02:14:22.111Z,99735.42
2019-03-21T02:16:53.450Z,99732.42
2019-03-21T02:22:02.897Z,99734.59
2019-03-21T02:25:30.411Z,99728.14
2019-03-21T02:28:20.265Z,99729.83
2019-03-21T02:31:10.447Z,99732.84
2019-03-21T02:33:41.985Z,99725.99
2019-03-21T02:36:32.212Z,99726.83
2019-03-21T02:39:22.041Z,99563.05
2019-03-21T02:41:55.955Z,99726.83
2019-03-21T02:44:46.650Z,99729.83
2019-03-21T02:47:19.119Z,99735.35
2019-03-21T02:49:50.376Z,99729.33
2019-03-21T02:52:41.559Z,99735.34
2019-03-21T02:55:31.401Z,99732.34
2019-03-21T02:58:13.397Z,99728.49
2019-03-21T03:00:55.166Z,99732.35
2019-03-21T03:03:26.770Z,99725.92
2019-03-21T03:06:00.446Z,99725.94
2019-03-21T03:08:31.943Z,99724.20
2019-03-21T03:11:03.640Z,99722.05
2019-03-21T03:13:34.827Z,99724.62
2019-03-21T03:16:06.071Z,99715.62
2019-03-21T03:18:55.862Z,99715.18
2019-03-21T03:21:45.707Z,99715.20
2019-03-21T03:24:36.374Z,99718.63
2019-03-21T03:27:26.224Z,99714.77
2019-03-21T03:29:57.829Z,99719.03
2019-03-21T03:32:48.029Z,99715.57
2019-03-21T03:35:37.872Z,99712.11
2019-03-21T03:38:27.672Z,99722.85
2019-03-21T03:41:00.366Z,99718.97
2019-03-21T03:43:31.693Z,99714.72
2019-03-21T03:46:03.334Z,99715.95
2019-03-21T03:48:53.403Z,99716.79
2019-03-21T03:51:43.581Z,99717.20
2019-03-21T03:54:34.256Z,99713.78
2019-03-21T03:57:15.975Z,99714.18
2019-03-21T04:02:24.856Z,99718.91
2019-03-21T04:05:16.715Z,99727.09
2019-03-21T04:08:08.230Z,99724.94
2019-03-21T04:10:50.055Z,99727.95
2019-03-21T04:13:21.892Z,99726.23
2019-03-21T04:16:12.117Z,99728.78
2019-03-21T04:18:43.306Z,99724.89
2019-03-21T04:21:33.397Z,99723.14
2019-03-21T04:24:22.418Z,99724.02
2019-03-21T04:26:53.839Z,99718.86
2019-03-21T04:29:25.469Z,99725.73
2019-03-21T04:31:56.784Z,99722.70
2019-03-21T04:34:27.955Z,99714.52
2019-03-21T04:36:59.753Z,99708.06
2019-03-21T04:39:49.610Z,99712.78
2019-03-21T04:42:39.476Z,99712.36
2019-03-21T04:45:29.691Z,99708.97
2019-03-21T04:48:00.917Z,99699.13
2019-03-21T04:50:51.173Z,99706.83
2019-03-21T04:53:33.431Z,99702.50
2019-03-21T04:56:15.270Z,99704.22
2019-03-21T04:58:46.464Z,99699.91
2019-03-21T05:01:17.695Z,99704.68
2019-03-21T05:04:07.904Z,99702.48
2019-03-21T05:06:57.754Z,99699.91
2019-03-21T05:09:47.560Z,99709.31
2019-03-21T05:12:37.390Z,99703.34
2019-03-21T05:15:11.738Z,99711.45
2019-03-21T05:18:03.580Z,99709.41
2019-03-21T05:20:53.963Z,99705.95
2019-03-21T05:23:25.418Z,99708.07
2019-03-21T05:25:56.707Z,99713.64
2019-03-21T05:28:46.967Z,99708.50
2019-03-21T05:31:36.954Z,99715.34
2019-03-21T05:34:26.763Z,99716.27
2019-03-21T05:36:57.972Z,99724.36
2019-03-21T05:39:52.165Z,99721.42
2019-03-21T05:42:25.807Z,99709.84
2019-03-21T05:45:15.767Z,99711.15
2019-03-21T05:48:05.853Z,99715.42
2019-03-21T05:50:37.860Z,99721.41
2019-03-21T05:53:21.957Z,99728.66
2019-03-21T05:56:04.320Z,99709.25
2019-03-21T05:58:36.145Z,99733.34
2019-03-21T06:01:26.245Z,99733.32
2019-03-21T06:04:16.168Z,99739.36
2019-03-21T06:07:09.123Z,99741.06
2019-03-21T06:09:59.166Z,99569.84
2019-03-21T06:12:49.646Z,99748.88
2019-03-21T06:15:39.744Z,99747.24
2019-03-21T06:18:32.837Z,99745.55
2019-03-21T06:22:04.240Z,99746.41
2019-03-21T06:24:30.827Z,99750.30
2019-03-21T06:27:39.207Z,99746.94
2019-03-21T06:30:29.116Z,99750.78
2019-03-21T06:33:00.689Z,99753.04
2019-03-21T06:35:31.852Z,99753.08
2019-03-21T06:38:04.787Z,99751.81
2019-03-21T06:40:36.527Z,99763.02
2019-03-21T06:43:26.582Z,99753.60
2019-03-21T06:46:16.464Z,99758.36
2019-03-21T06:52:17.328Z,99737.71
2019-03-21T06:55:05.078Z,99758.36
2019-03-21T06:57:55.171Z,99750.22
2019-03-21T07:00:26.496Z,99758.83
2019-03-21T07:02:59.602Z,99753.69
2019-03-21T07:05:49.473Z,99755.42
2019-03-21T07:08:20.719Z,99754.98
2019-03-21T07:10:52.256Z,99755.38
2019-03-21T07:13:23.591Z,99757.95
2019-03-21T07:16:06.092Z,99755.34
2019-03-21T07:18:37.385Z,99752.30
2019-03-21T07:21:09.369Z,99753.55
2019-03-21T07:24:00.338Z,99752.19
2019-03-21T07:26:32.221Z,99611.30
2019-03-21T07:29:22.074Z,99756.34
2019-03-21T07:31:53.287Z,99759.70
2019-03-21T07:34:24.827Z,99757.78
2019-03-21T07:37:14.706Z,99754.64
2019-03-21T07:39:46.031Z,99752.06
2019-03-21T07:42:36.146Z,99756.78
2019-03-21T07:45:07.850Z,99759.81
2019-03-21T07:47:39.450Z,99757.23
2019-03-21T07:50:11.999Z,99761.95
2019-03-21T07:53:02.202Z,99761.58
2019-03-21T07:55:51.988Z,99759.27
2019-03-21T07:58:41.834Z,99762.56
2019-03-21T08:01:31.716Z,99757.91
2019-03-21T08:04:21.996Z,99764.56
2019-03-21T08:07:12.138Z,99764.25
2019-03-21T08:09:43.491Z,99763.83
2019-03-21T08:12:33.417Z,99767.63
2019-03-21T08:15:05.401Z,99731.61
2019-03-21T08:17:55.300Z,99774.84
2019-03-21T08:20:26.651Z,99770.03
2019-03-21T08:23:16.634Z,99769.47
2019-03-21T08:26:06.593Z,99665.08
2019-03-21T08:28:37.757Z,99771.81
2019-03-21T08:31:27.699Z,99772.69
2019-03-21T08:34:17.574Z,99767.53
2019-03-21T08:37:07.466Z,99770.36
2019-03-21T08:39:57.908Z,99774.91
2019-03-21T08:42:47.820Z,99772.07
2019-03-21T08:45:37.668Z,99775.89
2019-03-21T08:48:27.525Z,99776.09
2019-03-21T08:51:07.746Z,99774.52
2019-03-21T08:53:50.514Z,99781.72
2019-03-21T08:56:40.368Z,99779.08
2019-03-21T08:59:11.604Z,99781.32
2019-03-21T09:02:01.487Z,99778.20
2019-03-21T09:04:43.563Z,99780.76
2019-03-21T09:07:25.653Z,99792.56
2019-03-21T09:10:07.996Z,99781.23
2019-03-21T09:12:58.159Z,99787.36
2019-03-21T09:15:29.511Z,99780.34
2019-03-21T09:18:19.516Z,99779.96
2019-03-21T09:20:51.288Z,99771.19
2019-03-21T09:23:22.813Z,99781.77
2019-03-21T09:26:12.874Z,99783.79
2019-03-21T09:29:02.962Z,99777.42
2019-03-21T09:31:34.537Z,99776.63
2019-03-21T09:34:24.384Z,99775.34
2019-03-21T09:37:14.309Z,99775.38
2019-03-21T09:40:04.546Z,99773.06
2019-03-21T09:42:55.422Z,99772.25
2019-03-21T09:45:28.078Z,99768.70
2019-03-21T09:47:59.876Z,99772.64
2019-03-21T09:50:49.759Z,99772.38
2019-03-21T09:53:40.517Z,99767.53
2019-03-21T09:56:30.455Z,99774.03
2019-03-21T09:59:01.718Z,99768.95
2019-03-21T10:01:51.648Z,99767.36
2019-03-21T10:04:33.353Z,99769.70
2019-03-21T10:07:15.423Z,99762.14
2019-03-21T10:09:57.376Z,99754.39
2019-03-21T10:12:39.351Z,99758.48
2019-03-21T10:15:29.595Z,99752.06
2019-03-21T10:18:19.566Z,99741.08
2019-03-21T10:21:09.549Z,99736.03
2019-03-21T10:23:40.885Z,99739.28
2019-03-21T10:26:30.814Z,99724.45
2019-03-21T10:29:20.701Z,99725.22
2019-03-21T10:32:14.438Z,99727.59
2019-03-21T10:35:03.286Z,99723.85
2019-03-21T10:37:53.219Z,99716.91
2019-03-21T10:40:43.155Z,99708.70
2019-03-21T10:43:32.982Z,99694.38
2019-03-21T10:46:22.950Z,99699.27
2019-03-21T10:49:12.782Z,99695.47
2019-03-21T10:52:02.641Z,99694.18
2019-03-21T10:54:52.649Z,99687.78
2019-03-21T10:57:42.723Z,99678.33
2019-03-21T11:00:32.497Z,99682.77
2019-03-21T11:03:08.807Z,99676.62
2019-03-21T11:05:58.692Z,99677.57
2019-03-21T11:08:41.049Z,99674.70
2019-03-21T11:11:23.132Z,99675.98
2019-03-21T11:14:04.869Z,99682.30
2019-03-21T11:16:45.714Z,99677.59
2019-03-21T11:19:17.294Z,99669.59
2019-03-21T11:22:07.295Z,99666.95
2019-03-21T11:24:57.252Z,99669.36
2019-03-21T11:27:29.082Z,99616.91
2019-03-21T11:30:39.085Z,99660.02
2019-03-21T11:33:11.169Z,99648.44
2019-03-21T11:35:42.775Z,99650.50
2019-03-21T11:38:14.901Z,99649.86
2019-03-21T11:41:04.924Z,99648.19
2019-03-21T11:43:36.413Z,99644.94
2019-03-21T11:46:09.075Z,99639.48
2019-03-21T11:48:58.991Z,99628.67
2019-03-21T11:52:17.770Z,99623.97
2019-03-21T11:58:22.204Z,99614.72
2019-03-21T12:01:13.278Z,99610.45
2019-03-21T12:04:04.272Z,99606.89
2019-03-21T12:06:54.983Z,99601.54
2019-03-21T12:09:31.854Z,99594.34
2019-03-21T12:12:22.746Z,99599.66
2019-03-21T12:14:58.056Z,99589.24
2019-03-21T12:17:48.694Z,99580.66
2019-03-21T12:20:33.191Z,99582.66
2019-03-21T12:23:05.722Z,99575.25
2019-03-21T12:25:57.738Z,99573.08
2019-03-21T12:28:30.138Z,99571.78
2019-03-21T12:31:20.351Z,99563.23
2019-03-21T12:34:35.758Z,99558.95
2019-03-21T12:37:26.158Z,99560.67
2019-03-21T12:40:16.298Z,99555.06
2019-03-21T12:43:06.532Z,99558.81
2019-03-21T12:45:56.401Z,99549.22
2019-03-21T12:48:46.343Z,99551.96
2019-03-21T12:51:36.620Z,99396.54
2019-03-21T12:54:27.371Z,99538.32
2019-03-21T12:57:17.347Z,99539.32
2019-03-21T12:59:59.044Z,99407.95
2019-03-21T13:02:32.144Z,99466.31
2019-03-21T13:05:04.218Z,99539.66
2019-03-21T13:07:35.534Z,99531.39
2019-03-21T13:10:14.413Z,99529.12
2019-03-21T13:13:04.516Z,99526.84
2019-03-21T13:15:38.634Z,99525.31
2019-03-21T13:18:20.460Z,99522.17
2019-03-21T13:20:51.896Z,99519.30
2019-03-21T13:23:23.485Z,99514.97
2019-03-21T13:26:13.363Z,99513.08
2019-03-21T13:29:03.191Z,99510.09
2019-03-21T13:31:35.163Z,99517.84
2019-03-21T13:34:24.984Z,99511.23
2019-03-21T13:36:57.767Z,99517.37
2019-03-21T13:39:47.606Z,99507.43
2019-03-21T13:42:19.638Z,99509.91
2019-03-21T13:45:09.747Z,99504.95
2019-03-21T13:47:59.761Z,99374.55
2019-03-21T13:50:31.137Z,99501.83
2019-03-21T13:53:20.994Z,99495.32
2019-03-21T13:55:55.076Z,99490.58
2019-03-21T13:58:26.703Z,99490.10
2019-03-21T14:00:58.475Z,99479.87
2019-03-21T14:03:48.607Z,99481.58
2019-03-21T14:06:20.632Z,99490.09
2019-03-21T14:08:51.910Z,99484.58
2019-03-21T14:11:42.046Z,99484.43
2019-03-21T14:14:13.260Z,99486.16
2019-03-21T14:16:44.501Z,99484.64
2019-03-21T14:19:17.136Z,99488.78
2019-03-21T14:21:48.461Z,99485.30
2019-03-21T14:24:38.418Z,99483.25
2019-03-21T14:27:28.316Z,99490.80
2019-03-21T14:30:01.598Z,99485.88
2019-03-21T14:32:52.048Z,99486.88
2019-03-21T14:35:42.025Z,99480.44
2019-03-21T14:38:32.499Z,99486.95
2019-03-21T14:41:22.378Z,99482.34
2019-03-21T14:43:53.813Z,99476.75
2019-03-21T14:46:25.370Z,99473.00
2019-03-21T14:49:15.296Z,99468.98
2019-03-21T14:51:47.872Z,99473.10
2019-03-21T14:54:19.467Z,99461.90
2019-03-21T14:56:52.662Z,99467.95
2019-03-21T14:59:34.935Z,99469.06
2019-03-21T15:02:06.564Z,99469.23
2019-03-21T15:04:37.774Z,99463.03
2019-03-21T15:07:09.020Z,99468.64
2019-03-21T15:09:40.920Z,99465.83
2019-03-21T15:12:30.761Z,99464.33
2019-03-21T15:15:02.179Z,99459.19
2019-03-21T15:17:33.684Z,99459.38
2019-03-21T15:20:09.714Z,99458.70
2019-03-21T15:22:41.150Z,99463.59
2019-03-21T15:25:12.984Z,99457.63
2019-03-21T15:27:44.611Z,99453.53
2019-03-21T15:30:17.895Z,99459.17
2019-03-21T15:33:08.165Z,99451.95
2019-03-21T15:38:49.776Z,99453.65
2019-03-21T15:41:21.413Z,99452.67
2019-03-21T15:44:11.538Z,99451.83
2019-03-21T15:46:42.829Z,99455.17
2019-03-21T15:49:32.688Z,99448.88
2019-03-21T15:52:05.818Z,99445.43
2019-03-21T15:54:55.702Z,99454.47
2019-03-21T15:57:26.885Z,99452.74
2019-03-21T16:00:04.956Z,99458.23
2019-03-21T16:02:55.329Z,99452.05
2019-03-21T16:05:46.129Z,99442.89
2019-03-21T16:08:17.532Z,99445.33
2019-03-21T16:10:49.155Z,99444.09
2019-03-21T16:13:21.090Z,99439.56
2019-03-21T16:15:52.847Z,99443.73
2019-03-21T16:18:24.698Z,99440.42
2019-03-21T16:20:56.394Z,99442.66
2019-03-21T16:23:27.703Z,99443.34
2019-03-21T16:25:58.935Z,99442.58
2019-03-21T16:28:30.494Z,99443.86
2019-03-21T16:31:07.814Z,99436.80
2019-03-21T16:33:57.830Z,99433.66
2019-03-21T16:36:48.135Z,99440.06
2019-03-21T16:39:19.349Z,99432.89
2019-03-21T16:41:52.119Z,99439.36
2019-03-21T16:44:23.535Z,99436.93
2019-03-21T16:47:13.779Z,99434.48
2019-03-21T16:50:04.559Z,99431.81
2019-03-21T16:52:35.790Z,99427.18
2019-03-21T16:55:12.307Z,99428.58
2019-03-21T16:57:44.114Z,99428.37
2019-03-21T17:00:18.274Z,99425.12
2019-03-21T17:02:49.983Z,99421.53
2019-03-21T17:05:42.142Z,99431.83
2019-03-21T17:08:14.155Z,99432.98
2019-03-21T17:10:45.556Z,99434.29
2019-03-21T17:13:18.256Z,99429.93
2019-03-21T17:15:50.080Z,99430.22
2019-03-21T17:18:21.379Z,99435.19
2019-03-21T17:21:11.385Z,99430.89
2019-03-21T17:24:01.263Z,99435.89
2019-03-21T17:26:52.526Z,99435.84
2019-03-21T17:29:23.789Z,99431.52
2019-03-21T17:32:13.881Z,99429.69
2019-03-21T17:35:03.723Z,99429.10
2019-03-21T17:37:53.561Z,99431.64
2019-03-21T17:40:24.769Z,99434.96
2019-03-21T17:42:57.560Z,99440.90
2019-03-21T17:45:29.235Z,99441.03
2019-03-21T17:48:20.622Z,99443.38
2019-03-21T17:50:52.438Z,99448.00
2019-03-21T17:53:52.901Z,99448.39
2019-03-21T17:56:24.515Z,99448.38
2019-03-21T17:59:06.105Z,99451.45
2019-03-21T18:01:41.744Z,99451.27
2019-03-21T18:04:13.498Z,99455.38
2019-03-21T18:07:04.301Z,99450.27
2019-03-21T18:09:54.149Z,99455.11
2019-03-21T18:12:25.529Z,99461.11
2019-03-21T18:14:56.822Z,99459.14
2019-03-21T18:17:28.425Z,99470.88
2019-03-21T18:19:59.981Z,99469.22
2019-03-21T18:22:40.862Z,99471.31
2019-03-21T18:25:31.186Z,99474.31
2019-03-21T18:28:02.574Z,99482.94
2019-03-21T18:30:34.076Z,99476.97
2019-03-21T18:33:25.540Z,99478.08
2019-03-21T18:35:57.391Z,99479.09
2019-03-21T18:38:56.788Z,99483.34
2019-03-21T18:43:58.457Z,99486.25
2019-03-21T18:46:29.741Z,99484.91
2019-03-21T18:49:19.863Z,99491.34
2019-03-21T18:51:52.059Z,99490.13
2019-03-21T18:54:23.927Z,99495.17
2019-03-21T18:56:55.656Z,99495.02
2019-03-21T18:59:47.771Z,99495.34
2019-03-21T19:05:30.971Z,99494.56
2019-03-21T19:08:22.080Z,99496.39
2019-03-21T19:10:54.702Z,99484.91
2019-03-21T19:13:27.073Z,99486.88
2019-03-21T19:15:58.372Z,99486.42
2019-03-21T19:18:48.320Z,99486.39
2019-03-21T19:21:19.800Z,99487.58
2019-03-21T19:23:51.575Z,99492.10
2019-03-21T19:26:23.448Z,99490.64
2019-03-21T19:28:55.093Z,99496.05
2019-03-21T19:31:45.646Z,99495.11
2019-03-21T19:34:17.351Z,99499.11
2019-03-21T19:37:07.445Z,99500.77
2019-03-21T19:39:42.310Z,99503.55
2019-03-21T19:42:32.412Z,99501.64
2019-03-21T19:45:22.435Z,99501.08
2019-03-21T19:48:12.844Z,99478.91
2019-03-21T19:50:44.454Z,99498.48
2019-03-21T19:53:34.446Z,99494.66
2019-03-21T19:56:24.548Z,99495.88
2019-03-21T19:59:06.528Z,99495.75
2019-03-21T20:01:48.166Z,99503.30
2019-03-21T20:04:19.674Z,99503.20
2019-03-21T20:07:09.939Z,99512.05
2019-03-21T20:09:41.342Z,99507.03
2019-03-21T20:12:12.579Z,99509.02
2019-03-21T20:15:02.649Z,99506.11
2019-03-21T20:17:36.031Z,99505.41
2019-03-21T20:23:15.923Z,99506.31
2019-03-21T20:26:24.617Z,99504.48
2019-03-21T20:29:15.434Z,99503.84
2019-03-21T20:31:46.744Z,99510.97
2019-03-21T20:34:18.193Z,99514.71
2019-03-21T20:37:08.198Z,99519.22
2019-03-21T20:39:39.911Z,99519.22
2019-03-21T20:42:11.610Z,99516.88
2019-03-21T20:44:43.758Z,99516.88
2019-03-21T20:47:35.375Z,99504.97
2019-03-21T20:50:07.391Z,99503.81
2019-03-21T20:52:57.434Z,99497.17
2019-03-21T20:55:53.883Z,99501.00
2019-03-21T20:58:24.013Z,99497.66
2019-03-21T21:00:59.614Z,99503.95
2019-03-21T21:03:50.572Z,99509.80
2019-03-21T21:06:42.482Z,99508.56
2019-03-21T21:09:14.946Z,99503.06
2019-03-21T21:12:05.593Z,99503.92
2019-03-21T21:15:01.217Z,99497.74
2019-03-21T21:17:32.903Z,99490.09
2019-03-21T21:20:04.431Z,99487.47
2019-03-21T21:22:54.663Z,99491.45
2019-03-21T21:25:46.772Z,99485.97
2019-03-21T21:28:37.511Z,99484.51
2019-03-21T21:31:08.980Z,99490.71
2019-03-21T21:33:40.939Z,99494.50
2019-03-21T21:36:31.232Z,99499.42
2019-03-21T21:39:24.730Z,99494.69
2019-03-21T21:41:56.460Z,99499.67
2019-03-21T21:44:27.636Z,99504.67
2019-03-21T21:47:18.078Z,99499.60
2019-03-21T21:49:52.283Z,99498.73
2019-03-21T21:52:23.558Z,99499.67
2019-03-21T21:55:18.804Z,99495.33
2019-03-21T21:58:08.705Z,99495.56
2019-03-21T22:00:40.451Z,99354.05
2019-03-21T22:03:14.920Z,99497.85
2019-03-21T22:05:49.078Z,99502.39
2019-03-21T22:08:39.286Z,99496.02
2019-03-21T22:11:29.828Z,99495.63
2019-03-21T22:14:19.651Z,99501.31
2019-03-21T22:17:01.337Z,99488.50
2019-03-21T22:19:32.859Z,99498.06
2019-03-21T22:22:04.353Z,99498.98
2019-03-21T22:24:54.520Z,99506.43
2019-03-21T22:27:27.035Z,99500.96
2019-03-21T22:29:58.273Z,99501.30
2019-03-21T22:32:29.797Z,99505.31
2019-03-21T22:35:01.099Z,99498.94
2019-03-21T22:37:32.420Z,99501.11
2019-03-21T22:40:03.795Z,99501.24
2019-03-21T22:45:25.768Z,99496.45
2019-03-21T22:48:15.651Z,99494.38
2019-03-21T22:50:47.129Z,99495.30
2019-03-21T22:53:18.653Z,99493.33
2019-03-21T22:55:49.878Z,99486.11
2019-03-21T22:58:31.465Z,99486.55
2019-03-21T23:00:54.936Z,99486.98
2019-03-21T23:03:45.190Z,99484.05
2019-03-21T23:06:16.500Z,99484.48
2019-03-21T23:08:48.383Z,99480.55
2019-03-21T23:11:38.799Z,99482.03
2019-03-21T23:14:29.550Z,99476.84
2019-03-21T23:17:03.604Z,99472.96
2019-03-21T23:19:53.777Z,99477.02
2019-03-21T23:22:43.836Z,99469.33
2019-03-21T23:25:33.735Z,99475.42
2019-03-21T23:28:05.143Z,99475.80
2019-03-21T23:30:36.833Z,99470.41
2019-03-21T23:33:08.260Z,99470.36
2019-03-21T23:35:39.438Z,99467.38
2019-03-21T23:38:11.298Z,99470.48
2019-03-21T23:40:42.652Z,99468.36
2019-03-21T23:43:32.851Z,99462.77
2019-03-21T23:46:04.440Z,99462.80
2019-03-21T23:48:54.658Z,99455.16
2019-03-21T23:51:44.509Z,99455.55
2019-03-21T23:54:15.743Z,99455.98
2019-03-21T23:56:47.378Z,99456.09
2019-03-21T23:59:29.803Z,99453.03
